This is the latest recevied weather packets stored in our database for station/object PE1BMM-13. If no packets are shown the sender has not sent any weather packets the latest 10 day(s).
| Time | Temp. | Humidity | Pressure | Rain* | Wind** | Luminosity | Snow |
|---|---|---|---|---|---|---|---|
| 1777907211 | 15° C | 85% | 1014 hPa | 0 mm | - | - | - |
| 1777904212 | 16.11° C | 85% | 1014.1 hPa | 0 mm | - | - | - |
| 1777903612 | 15.56° C | 86% | 1014.1 hPa | 0 mm | - | - | - |
| 1777900613 | 16.11° C | 86% | 1014.1 hPa | 0 mm | - | - | - |
| 1777898808 | 15.56° C | 90% | 1014.1 hPa | 0 mm | - | - | - |
| 1777895799 | 14.44° C | 94% | 1014 hPa | 0 mm | - | - | - |
| 1777895162 | 14.44° C | 93% | 1014.1 hPa | 0 mm | - | - | - |
| 1777894003 | 14.44° C | 93% | 1014.2 hPa | 0 mm | - | - | - |
| 1777889791 | 14.44° C | 94% | 1014.1 hPa | 0 mm | - | - | - |
| 1777888592 | 14.44° C | 95% | 1014 hPa | 0 mm | - | - | - |
| 1777883784 | 13.89° C | 98% | 1013.6 hPa | 0 mm | - | - | - |
| 1777881984 | 13.33° C | 98% | 1013.5 hPa | 0 mm | - | - | - |
| 1777881385 | 13.33° C | 98% | 1013.4 hPa | 0 mm | - | - | - |
| 1777869371 | 12.78° C | 98% | 1012.1 hPa | 0 mm | - | - | - |
| 1777866966 | 12.78° C | 97% | 1012 hPa | 0 mm | - | - | - |
| 1777866651 | 12.22° C | 97% | 1012.1 hPa | 0 mm | - | - | - |
| 1777863961 | 12.22° C | 97% | 1012 hPa | 0 mm | - | - | - |
| 1777862162 | 12.22° C | 97% | 1011.9 hPa | 0 mm | - | - | - |
| 1777859760 | 11.67° C | 97% | 1011.9 hPa | 0 mm | - | - | - |
| 1777859155 | 11.67° C | 97% | 1012 hPa | 0 mm | - | - | - |
| 1777857354 | 11.67° C | 96% | 1012.1 hPa | 0 mm | - | - | - |
| 1777856151 | 11.67° C | 96% | 1011.9 hPa | 0 mm | - | - | - |
| 1777856103 | 11.67° C | 96% | 1011.7 hPa | 0 mm | - | - | - |
| 1777851349 | 11.67° C | 95% | 1011.9 hPa | 0 mm | - | - | - |
| 1777848948 | 12.78° C | 93% | 1011.6 hPa | 0 mm | - | - | - |
* Rain latest hour (hover to see other rain measurements)
** Current wind speed in m/s (hover to see current wind gust speed)